createdAt,value
2022-12-28T00:02:18.418Z,8.15
2022-12-28T00:04:45.952Z,8.19
2022-12-28T00:07:13.158Z,8.30
2022-12-28T00:09:40.293Z,8.41
2022-12-28T00:12:07.721Z,8.69
2022-12-28T00:14:35.026Z,8.11
2022-12-28T00:17:02.187Z,8.18
2022-12-28T00:19:30.501Z,8.15
2022-12-28T00:21:57.645Z,8.22
2022-12-28T00:24:25.300Z,8.04
2022-12-28T00:26:52.902Z,7.31
2022-12-28T00:29:20.261Z,7.57
2022-12-28T00:31:47.550Z,7.65
2022-12-28T00:34:15.295Z,7.67
2022-12-28T00:37:08.385Z,7.69
2022-12-28T00:39:30.208Z,8.02
2022-12-28T00:41:57.425Z,7.96
2022-12-28T00:44:24.721Z,7.48
2022-12-28T00:46:52.212Z,7.83
2022-12-28T00:49:19.401Z,7.60
2022-12-28T00:51:46.580Z,7.89
2022-12-28T00:54:14.016Z,7.75
2022-12-28T00:56:43.144Z,7.85
2022-12-28T00:59:10.411Z,7.93
2022-12-28T01:01:38.526Z,7.98
2022-12-28T01:04:05.762Z,7.81
2022-12-28T01:06:32.989Z,7.97
2022-12-28T01:09:00.452Z,8.02
2022-12-28T01:11:28.500Z,8.13
2022-12-28T01:13:58.060Z,7.80
2022-12-28T01:16:35.086Z,7.64
2022-12-28T01:19:03.535Z,7.64
2022-12-28T01:21:32.431Z,7.62
2022-12-28T01:24:00.651Z,7.65
2022-12-28T01:26:28.277Z,7.76
2022-12-28T01:28:56.385Z,7.85
2022-12-28T01:31:23.625Z,7.84
2022-12-28T01:33:51.155Z,7.69
2022-12-28T01:36:22.526Z,7.49
2022-12-28T01:38:52.295Z,7.48
2022-12-28T01:41:20.476Z,7.39
2022-12-28T01:44:07.582Z,7.43
2022-12-28T01:46:37.231Z,7.19
2022-12-28T01:49:24.327Z,7.18
2022-12-28T01:51:56.732Z,7.15
2022-12-28T01:54:24.270Z,6.73
2022-12-28T01:56:51.718Z,6.83
2022-12-28T01:59:19.500Z,7.03
2022-12-28T02:01:46.801Z,7.24
2022-12-28T02:04:14.336Z,7.46
2022-12-28T02:06:41.502Z,7.27
2022-12-28T02:09:17.181Z,7.39
2022-12-28T02:11:44.597Z,7.56
2022-12-28T02:14:11.861Z,7.73
2022-12-28T02:16:39.382Z,7.84
2022-12-28T02:19:08.350Z,7.82
2022-12-28T02:21:48.318Z,7.82
2022-12-28T02:24:31.164Z,7.69
2022-12-28T02:27:17.485Z,7.89
2022-12-28T02:29:53.371Z,7.72
2022-12-28T02:32:39.632Z,7.84
2022-12-28T02:35:08.716Z,8.00
2022-12-28T02:37:49.161Z,7.96
2022-12-28T02:40:18.938Z,7.89
2022-12-28T02:42:46.192Z,7.93
2022-12-28T02:45:48.114Z,7.88
2022-12-28T02:48:34.672Z,7.91
2022-12-28T02:51:17.955Z,7.53
2022-12-28T02:53:51.511Z,7.49
2022-12-28T02:56:18.689Z,7.46
2022-12-28T02:58:57.940Z,7.20
2022-12-28T03:01:44.067Z,7.32
2022-12-28T03:04:19.215Z,7.23
2022-12-28T03:07:13.603Z,7.03
2022-12-28T03:10:13.631Z,7.07
2022-12-28T03:13:03.992Z,7.07
2022-12-28T03:15:34.174Z,7.37
2022-12-28T03:18:23.203Z,7.34
2022-12-28T03:21:09.944Z,7.22
2022-12-28T03:23:55.840Z,7.37
2022-12-28T03:26:41.973Z,7.32
2022-12-28T03:29:28.569Z,7.24
2022-12-28T03:31:56.215Z,6.89
2022-12-28T03:34:23.437Z,6.84
2022-12-28T03:37:05.248Z,6.70
2022-12-28T03:39:37.206Z,6.71
2022-12-28T03:42:49.489Z,6.53
2022-12-28T03:45:44.271Z,6.68
2022-12-28T03:48:09.640Z,6.94
2022-12-28T03:50:38.148Z,6.99
2022-12-28T03:53:07.007Z,6.83
2022-12-28T03:55:35.673Z,6.85
2022-12-28T03:58:03.730Z,6.77
2022-12-28T04:00:30.978Z,6.64
2022-12-28T04:02:58.654Z,6.52
2022-12-28T04:05:25.987Z,6.57
2022-12-28T04:07:53.500Z,6.61
2022-12-28T04:10:21.231Z,6.74
2022-12-28T04:12:49.164Z,6.69
2022-12-28T04:15:17.952Z,6.54
2022-12-28T04:17:45.455Z,6.45
2022-12-28T04:20:12.653Z,6.72
2022-12-28T04:22:39.873Z,6.83
2022-12-28T04:25:07.502Z,6.68
2022-12-28T04:27:35.253Z,6.84
2022-12-28T04:30:02.838Z,6.98
2022-12-28T04:32:31.395Z,6.83
2022-12-28T04:34:58.615Z,6.69
2022-12-28T04:37:27.561Z,7.03
2022-12-28T04:39:57.301Z,7.02
2022-12-28T04:42:25.574Z,6.69
2022-12-28T04:44:52.796Z,6.87
2022-12-28T04:47:20.443Z,6.56
2022-12-28T04:49:47.659Z,6.67
2022-12-28T04:52:15.034Z,6.84
2022-12-28T04:54:42.506Z,7.07
2022-12-28T04:57:09.690Z,7.09
2022-12-28T04:59:36.928Z,7.05
2022-12-28T05:02:04.490Z,6.98
2022-12-28T05:04:31.858Z,7.02
2022-12-28T05:06:58.984Z,6.88
2022-12-28T05:09:26.443Z,6.59
2022-12-28T05:11:53.730Z,6.58
2022-12-28T05:14:20.925Z,6.33
2022-12-28T05:16:50.103Z,6.45
2022-12-28T05:19:17.342Z,6.63
2022-12-28T05:21:45.436Z,6.64
2022-12-28T05:24:12.907Z,6.74
2022-12-28T05:26:40.096Z,6.51
2022-12-28T05:29:07.240Z,6.57
2022-12-28T05:31:34.707Z,6.23
2022-12-28T05:34:01.947Z,6.56
2022-12-28T05:36:29.126Z,6.62
2022-12-28T05:38:56.872Z,6.79
2022-12-28T05:41:25.125Z,6.63
2022-12-28T05:43:52.694Z,6.44
2022-12-28T05:46:21.634Z,6.12
2022-12-28T05:48:48.888Z,5.20
2022-12-28T05:51:17.250Z,6.11
2022-12-28T05:53:45.041Z,6.01
2022-12-28T05:56:14.690Z,5.99
2022-12-28T05:58:46.121Z,6.10
2022-12-28T06:01:15.063Z,6.21
2022-12-28T06:03:42.881Z,5.88
2022-12-28T06:06:14.624Z,6.00
2022-12-28T06:08:42.049Z,6.19
2022-12-28T06:11:10.477Z,6.36
2022-12-28T06:13:37.680Z,6.43
2022-12-28T06:16:06.020Z,6.38
2022-12-28T06:18:36.288Z,6.61
2022-12-28T06:21:07.470Z,6.43
2022-12-28T06:23:34.752Z,6.29
2022-12-28T06:26:02.636Z,6.54
2022-12-28T06:28:29.839Z,6.72
2022-12-28T06:31:04.306Z,6.68
2022-12-28T06:33:31.789Z,6.59
2022-12-28T06:35:59.054Z,6.71
2022-12-28T06:38:27.249Z,6.77
2022-12-28T06:41:13.006Z,6.90
2022-12-28T06:43:41.952Z,6.71
2022-12-28T06:46:10.041Z,6.75
2022-12-28T06:48:37.471Z,6.84
2022-12-28T06:51:05.804Z,7.32
2022-12-28T06:53:34.330Z,7.86
2022-12-28T06:56:05.944Z,8.45
2022-12-28T06:58:33.536Z,9.28
2022-12-28T07:01:10.959Z,9.96
2022-12-28T07:03:38.548Z,10.15
2022-12-28T07:06:05.916Z,10.02
2022-12-28T07:08:33.119Z,10.56
2022-12-28T07:11:04.402Z,11.18
2022-12-28T07:13:31.622Z,11.46
2022-12-28T07:16:01.329Z,11.86
2022-12-28T07:18:28.728Z,11.50
2022-12-28T07:20:59.659Z,11.02
2022-12-28T07:23:30.096Z,11.52
2022-12-28T07:25:58.453Z,12.34
2022-12-28T07:28:25.690Z,11.99
2022-12-28T07:30:52.872Z,12.48
2022-12-28T07:33:20.588Z,13.16
2022-12-28T07:35:47.732Z,13.47
2022-12-28T07:38:20.955Z,14.55
2022-12-28T07:40:48.921Z,15.76
2022-12-28T07:43:16.103Z,16.54
2022-12-28T07:45:43.298Z,16.52
2022-12-28T07:48:10.803Z,16.91
2022-12-28T07:50:38.318Z,17.25
2022-12-28T07:53:05.635Z,16.48
2022-12-28T07:55:33.136Z,15.09
2022-12-28T07:58:00.306Z,15.06
2022-12-28T08:00:27.483Z,15.02
2022-12-28T08:02:55.627Z,14.98
2022-12-28T08:05:22.834Z,15.27
2022-12-28T08:07:50.086Z,15.10
2022-12-28T08:10:17.541Z,14.88
2022-12-28T08:12:44.795Z,14.57
2022-12-28T08:15:12.023Z,14.50
2022-12-28T08:17:39.438Z,14.54
2022-12-28T08:20:06.838Z,14.93
2022-12-28T08:22:34.060Z,15.12
2022-12-28T08:25:01.553Z,15.06
2022-12-28T08:27:31.184Z,15.47
2022-12-28T08:30:00.741Z,15.88
2022-12-28T08:32:28.267Z,16.12
2022-12-28T08:34:55.669Z,16.31
2022-12-28T08:37:22.860Z,16.61
2022-12-28T08:39:50.288Z,16.49
2022-12-28T08:42:17.543Z,16.06
2022-12-28T08:44:44.720Z,15.92
2022-12-28T08:47:12.189Z,16.30
2022-12-28T08:49:39.441Z,16.10
2022-12-28T08:52:07.625Z,15.93
2022-12-28T08:54:35.081Z,15.28
2022-12-28T08:57:02.330Z,14.95
2022-12-28T08:59:29.491Z,15.03
2022-12-28T09:01:57.047Z,14.73
2022-12-28T09:04:24.390Z,15.42
2022-12-28T09:06:51.624Z,16.33
2022-12-28T09:09:19.959Z,16.34
2022-12-28T09:11:47.326Z,17.27
2022-12-28T09:14:20.724Z,17.60
2022-12-28T09:16:49.953Z,16.25
2022-12-28T09:19:17.125Z,15.31
2022-12-28T09:21:48.867Z,14.61
2022-12-28T09:24:16.560Z,15.09
2022-12-28T09:26:44.029Z,15.06
2022-12-28T09:29:11.945Z,14.68
2022-12-28T09:31:40.636Z,14.48
2022-12-28T09:34:38.047Z,14.05
2022-12-28T09:36:56.015Z,13.86
2022-12-28T09:39:25.081Z,13.40
2022-12-28T09:42:02.702Z,13.77
2022-12-28T09:44:36.173Z,14.24
2022-12-28T09:47:12.436Z,14.86
2022-12-28T09:49:58.223Z,15.01
2022-12-28T09:52:28.562Z,15.36
2022-12-28T09:54:56.399Z,15.11
2022-12-28T09:57:24.039Z,15.60
2022-12-28T09:59:51.291Z,15.61
2022-12-28T10:02:30.140Z,16.55
2022-12-28T10:04:57.740Z,17.08
2022-12-28T10:07:24.894Z,16.83
2022-12-28T10:09:52.170Z,16.72
2022-12-28T10:12:24.414Z,15.80
2022-12-28T10:14:52.370Z,17.15
2022-12-28T10:17:21.014Z,17.87
2022-12-28T10:19:48.353Z,18.88
2022-12-28T10:22:19.448Z,19.10
2022-12-28T10:24:47.104Z,20.15
2022-12-28T10:27:20.187Z,20.14
2022-12-28T10:29:48.113Z,19.93
2022-12-28T10:32:15.373Z,20.69
2022-12-28T10:34:53.323Z,21.77
2022-12-28T10:37:20.911Z,21.26
2022-12-28T10:39:49.449Z,18.94
2022-12-28T10:42:26.555Z,18.28
2022-12-28T10:44:54.429Z,18.50
2022-12-28T10:47:29.377Z,17.70
2022-12-28T10:52:50.776Z,16.15
2022-12-28T10:55:26.078Z,13.44
2022-12-28T10:58:27.512Z,13.44
2022-12-28T11:00:41.123Z,12.38
2022-12-28T11:03:18.812Z,13.21
2022-12-28T11:05:52.826Z,12.89
2022-12-28T11:08:24.291Z,12.38
2022-12-28T11:10:56.855Z,12.37
2022-12-28T11:13:24.034Z,11.49
2022-12-28T11:15:51.513Z,10.87
2022-12-28T11:18:19.121Z,11.04
2022-12-28T11:20:47.363Z,10.91
2022-12-28T11:23:22.372Z,10.89
2022-12-28T11:25:49.608Z,12.80
2022-12-28T11:28:18.575Z,14.11
2022-12-28T11:30:46.835Z,15.57
2022-12-28T11:33:26.228Z,15.58
2022-12-28T11:35:57.509Z,16.02
2022-12-28T11:38:36.716Z,15.78
2022-12-28T11:41:04.168Z,15.35
2022-12-28T11:43:32.974Z,13.60
2022-12-28T11:46:19.130Z,13.56
2022-12-28T11:49:00.258Z,11.40
2022-12-28T11:51:27.445Z,12.26
2022-12-28T11:54:07.333Z,11.88
2022-12-28T11:56:43.715Z,12.57
2022-12-28T11:59:27.172Z,10.11
2022-12-28T12:01:55.436Z,10.85
2022-12-28T12:04:30.485Z,11.10
2022-12-28T12:06:57.732Z,10.88
2022-12-28T12:09:29.388Z,10.12
2022-12-28T12:11:59.658Z,10.31
2022-12-28T12:14:28.210Z,10.29
2022-12-28T12:17:03.405Z,9.99
2022-12-28T12:19:32.225Z,9.59
2022-12-28T12:22:01.830Z,10.45
2022-12-28T12:24:54.533Z,8.56
2022-12-28T12:27:32.536Z,8.85
2022-12-28T12:30:00.587Z,9.66
2022-12-28T12:32:31.075Z,9.15
2022-12-28T12:35:01.157Z,9.49
2022-12-28T12:37:31.621Z,10.19
2022-12-28T12:40:14.043Z,10.59
2022-12-28T12:42:41.610Z,11.02
2022-12-28T12:45:11.648Z,11.20
2022-12-28T12:47:57.213Z,11.05
2022-12-28T12:50:30.433Z,11.50
2022-12-28T12:53:04.893Z,11.40
2022-12-28T12:55:35.513Z,10.61
2022-12-28T12:58:03.208Z,11.05
2022-12-28T13:00:32.980Z,11.87
2022-12-28T13:03:20.090Z,11.62
2022-12-28T13:05:54.140Z,11.45
2022-12-28T13:08:23.229Z,11.59
2022-12-28T13:10:50.415Z,11.33
2022-12-28T13:13:18.550Z,11.15
2022-12-28T13:15:46.030Z,11.89
2022-12-28T13:18:44.090Z,11.15
2022-12-28T13:21:10.626Z,9.98
2022-12-28T13:23:43.794Z,11.15
2022-12-28T13:26:11.595Z,11.15
2022-12-28T13:28:38.865Z,11.26
2022-12-28T13:31:09.195Z,10.06
2022-12-28T13:33:37.111Z,10.51
2022-12-28T13:36:05.032Z,10.89
2022-12-28T13:38:35.409Z,11.57
2022-12-28T13:41:03.225Z,10.27
2022-12-28T13:43:37.404Z,9.86
2022-12-28T13:46:08.136Z,10.87
2022-12-28T13:48:36.228Z,11.42
2022-12-28T13:51:03.915Z,11.42
2022-12-28T13:53:31.407Z,11.41
2022-12-28T13:55:58.984Z,10.78
2022-12-28T13:58:27.481Z,9.63
2022-12-28T14:00:55.530Z,10.17
2022-12-28T14:03:23.086Z,10.07
2022-12-28T14:05:59.960Z,9.40
2022-12-28T14:08:27.734Z,9.83
2022-12-28T14:10:54.946Z,9.35
2022-12-28T14:13:22.276Z,9.18
2022-12-28T14:15:49.871Z,9.05
2022-12-28T14:18:17.663Z,9.93
2022-12-28T14:21:04.125Z,8.22
2022-12-28T14:23:35.717Z,8.99
2022-12-28T14:26:05.170Z,10.17
2022-12-28T14:28:35.859Z,9.42
2022-12-28T14:31:06.443Z,10.47
2022-12-28T14:33:34.958Z,9.88
2022-12-28T14:36:03.421Z,9.74
2022-12-28T14:38:40.465Z,9.23
2022-12-28T14:41:14.254Z,9.18
2022-12-28T14:43:41.448Z,9.21
2022-12-28T14:46:17.182Z,9.46
2022-12-28T14:48:45.518Z,9.52
2022-12-28T14:51:17.485Z,9.47
2022-12-28T14:53:45.402Z,9.72
2022-12-28T14:56:13.744Z,8.48
2022-12-28T14:58:50.606Z,8.97
2022-12-28T15:01:19.188Z,10.04
2022-12-28T15:03:50.580Z,9.40
2022-12-28T15:06:19.942Z,9.73
2022-12-28T15:08:48.840Z,10.19
2022-12-28T15:11:17.359Z,10.34
2022-12-28T15:13:44.750Z,10.09
2022-12-28T15:16:13.273Z,10.76
2022-12-28T15:18:46.946Z,10.59
2022-12-28T15:21:15.624Z,10.83
2022-12-28T15:23:44.702Z,10.44
2022-12-28T15:26:12.660Z,10.48
2022-12-28T15:28:40.371Z,10.21
2022-12-28T15:31:08.561Z,10.56
2022-12-28T15:33:35.933Z,10.33
2022-12-28T15:36:10.777Z,10.96
2022-12-28T15:38:40.786Z,9.10
2022-12-28T15:41:28.440Z,10.48
2022-12-28T15:43:55.835Z,10.64
2022-12-28T15:46:23.452Z,10.03
2022-12-28T15:48:50.704Z,10.58
2022-12-28T15:51:17.931Z,10.91
2022-12-28T15:53:45.832Z,10.86
2022-12-28T15:56:18.797Z,10.67
2022-12-28T15:58:46.405Z,10.59
2022-12-28T16:01:14.308Z,10.84
2022-12-28T16:03:41.996Z,11.02
2022-12-28T16:06:09.444Z,10.51
2022-12-28T16:08:36.703Z,10.75
2022-12-28T16:11:22.490Z,10.56
2022-12-28T16:13:50.762Z,10.67
2022-12-28T16:16:18.464Z,9.70
2022-12-28T16:18:45.684Z,10.53
2022-12-28T16:21:13.279Z,9.93
2022-12-28T16:23:42.069Z,10.23
2022-12-28T16:26:10.446Z,10.61
2022-12-28T16:28:37.758Z,10.06
2022-12-28T16:31:05.534Z,9.83
2022-12-28T16:33:32.867Z,10.17
2022-12-28T16:36:10.616Z,10.06
2022-12-28T16:38:38.092Z,10.00
2022-12-28T16:41:05.775Z,8.77
2022-12-28T16:43:33.151Z,9.75
2022-12-28T16:46:04.960Z,9.97
2022-12-28T16:48:32.394Z,8.93
2022-12-28T16:50:59.869Z,9.05
2022-12-28T16:53:27.708Z,8.72
2022-12-28T16:55:55.003Z,9.07
2022-12-28T16:58:22.223Z,10.23
2022-12-28T17:00:49.728Z,10.01
2022-12-28T17:03:17.124Z,10.09
2022-12-28T17:05:44.818Z,10.35
2022-12-28T17:08:12.429Z,10.24
2022-12-28T17:10:40.986Z,9.43
2022-12-28T17:13:08.324Z,8.63
2022-12-28T17:15:38.399Z,9.32
2022-12-28T17:18:05.783Z,9.28
2022-12-28T17:20:35.784Z,10.01
2022-12-28T17:23:03.807Z,10.45
2022-12-28T17:25:31.466Z,10.43
2022-12-28T17:27:59.169Z,9.56
2022-12-28T17:30:27.277Z,10.62
2022-12-28T17:32:54.544Z,10.23
2022-12-28T17:35:21.777Z,9.99
2022-12-28T17:37:49.337Z,10.62
2022-12-28T17:40:16.611Z,10.57
2022-12-28T17:42:43.841Z,10.97
2022-12-28T17:45:12.118Z,10.95
2022-12-28T17:47:39.547Z,10.57
2022-12-28T17:50:07.159Z,10.36
2022-12-28T17:52:34.845Z,9.68
2022-12-28T17:55:03.479Z,9.48
2022-12-28T17:57:35.306Z,10.75
2022-12-28T18:00:06.666Z,10.94
2022-12-28T18:02:39.660Z,10.60
2022-12-28T18:05:07.417Z,10.30
2022-12-28T18:07:34.823Z,10.83
2022-12-28T18:10:01.998Z,11.03
2022-12-28T18:12:29.464Z,10.14
2022-12-28T18:14:56.655Z,10.64
2022-12-28T18:17:23.951Z,10.31
2022-12-28T18:19:53.525Z,10.55
2022-12-28T18:22:23.053Z,10.77
2022-12-28T18:24:50.697Z,10.68
2022-12-28T18:27:18.368Z,10.58
2022-12-28T18:29:45.602Z,10.19
2022-12-28T18:32:12.842Z,10.32
2022-12-28T18:34:40.296Z,10.47
2022-12-28T18:37:07.787Z,10.48
2022-12-28T18:39:35.329Z,10.42
2022-12-28T18:42:03.229Z,10.16
2022-12-28T18:44:30.524Z,10.23
2022-12-28T18:46:57.749Z,9.88
2022-12-28T18:49:25.273Z,9.65
2022-12-28T18:51:52.505Z,9.98
2022-12-28T18:54:19.749Z,10.01
2022-12-28T18:56:47.386Z,9.71
2022-12-28T18:59:14.679Z,9.85
2022-12-28T19:04:30.084Z,8.97
2022-12-28T19:06:57.570Z,9.83
2022-12-28T19:09:24.929Z,10.05
2022-12-28T19:11:52.889Z,9.90
2022-12-28T19:14:20.128Z,10.10
2022-12-28T19:16:47.569Z,9.99
2022-12-28T19:19:17.254Z,9.98
2022-12-28T19:21:44.705Z,9.98
2022-12-28T19:24:15.858Z,8.90
2022-12-28T19:26:43.605Z,9.27
2022-12-28T19:29:11.570Z,9.56
2022-12-28T19:31:39.011Z,9.56
2022-12-28T19:34:06.835Z,9.67
2022-12-28T19:36:34.189Z,9.15
2022-12-28T19:39:01.389Z,9.57
2022-12-28T19:41:29.214Z,9.82
2022-12-28T19:43:56.460Z,9.91
2022-12-28T19:46:30.711Z,9.78
2022-12-28T19:48:59.147Z,9.66
2022-12-28T19:51:30.712Z,9.82
2022-12-28T19:53:59.833Z,10.02
2022-12-28T19:56:27.428Z,9.87
2022-12-28T19:59:01.079Z,10.02
2022-12-28T20:01:33.189Z,9.78
2022-12-28T20:04:01.079Z,9.29
2022-12-28T20:06:28.828Z,9.50
2022-12-28T20:08:57.238Z,9.83
2022-12-28T20:11:25.410Z,9.60
2022-12-28T20:13:59.567Z,9.80
2022-12-28T20:16:28.085Z,9.80
2022-12-28T20:18:55.568Z,9.69
2022-12-28T20:21:23.878Z,9.55
2022-12-28T20:23:52.145Z,9.02
2022-12-28T20:26:20.010Z,8.40
2022-12-28T20:28:51.041Z,9.02
2022-12-28T20:31:18.875Z,9.44
2022-12-28T20:33:46.646Z,9.20
2022-12-28T20:36:15.100Z,9.02
2022-12-28T20:38:42.566Z,8.61
2022-12-28T20:41:41.729Z,9.37
2022-12-28T20:44:11.045Z,9.19
2022-12-28T20:46:38.524Z,8.45
2022-12-28T20:49:05.962Z,8.59
2022-12-28T20:51:33.822Z,8.19
2022-12-28T20:54:01.634Z,8.95
2022-12-28T20:56:28.913Z,9.32
2022-12-28T20:58:56.659Z,9.47
2022-12-28T21:01:24.111Z,9.57
2022-12-28T21:03:51.473Z,9.68
2022-12-28T21:06:19.332Z,9.53
2022-12-28T21:08:46.599Z,9.59
2022-12-28T21:11:14.172Z,9.46
2022-12-28T21:13:44.622Z,9.42
2022-12-28T21:16:13.018Z,9.42
2022-12-28T21:18:40.622Z,9.35
2022-12-28T21:21:13.195Z,9.20
2022-12-28T21:23:40.411Z,9.16
2022-12-28T21:26:09.856Z,9.08
2022-12-28T21:28:37.217Z,9.21
2022-12-28T21:31:06.140Z,9.04
2022-12-28T21:33:33.854Z,9.20
2022-12-28T21:36:01.759Z,9.25
2022-12-28T21:38:30.627Z,9.27
2022-12-28T21:40:58.404Z,9.23
2022-12-28T21:43:25.629Z,9.18
2022-12-28T21:46:22.134Z,9.29
2022-12-28T21:48:49.630Z,8.79
2022-12-28T21:51:32.245Z,8.23
2022-12-28T21:54:00.435Z,7.94
2022-12-28T21:56:28.152Z,6.24
2022-12-28T21:58:55.829Z,7.17
2022-12-28T22:01:42.379Z,7.44
2022-12-28T22:04:33.026Z,7.89
2022-12-28T22:07:00.640Z,8.31
2022-12-28T22:09:47.008Z,8.58
2022-12-28T22:12:33.383Z,8.73
2022-12-28T22:15:21.754Z,8.87
2022-12-28T22:17:49.116Z,8.76
2022-12-28T22:20:16.668Z,8.96
2022-12-28T22:22:44.247Z,8.73
2022-12-28T22:25:11.741Z,8.05
2022-12-28T22:27:39.571Z,8.95
2022-12-28T22:30:07.071Z,8.93
2022-12-28T22:32:34.507Z,9.09
2022-12-28T22:35:02.068Z,9.06
2022-12-28T22:37:29.305Z,9.35
2022-12-28T22:39:56.554Z,8.88
2022-12-28T22:42:24.096Z,8.51
2022-12-28T22:44:51.668Z,8.91
2022-12-28T22:47:19.273Z,8.50
2022-12-28T22:49:47.288Z,8.34
2022-12-28T22:52:14.489Z,8.70
2022-12-28T22:54:41.679Z,8.44
2022-12-28T22:57:09.165Z,8.89
2022-12-28T22:59:36.476Z,8.84
2022-12-28T23:02:03.850Z,8.54
2022-12-28T23:04:31.570Z,8.35
2022-12-28T23:07:03.617Z,8.31
2022-12-28T23:09:31.948Z,8.83
2022-12-28T23:11:59.165Z,8.51
2022-12-28T23:14:45.228Z,8.39
2022-12-28T23:17:13.335Z,8.42
2022-12-28T23:20:02.599Z,8.06
2022-12-28T23:22:52.420Z,8.21
2022-12-28T23:25:39.824Z,8.88
2022-12-28T23:28:10.114Z,9.00
2022-12-28T23:30:38.095Z,8.76
2022-12-28T23:33:05.373Z,8.43
2022-12-28T23:35:32.922Z,8.47
2022-12-28T23:38:00.145Z,8.68
2022-12-28T23:40:27.543Z,7.76
2022-12-28T23:42:55.119Z,8.47
2022-12-28T23:45:22.507Z,8.47
2022-12-28T23:47:51.481Z,7.90
2022-12-28T23:50:19.569Z,7.31
2022-12-28T23:52:46.794Z,7.25
2022-12-28T23:55:13.989Z,7.49
2022-12-28T23:57:41.490Z,7.56
